• Join FlightAware (Why Join?)
  • Login
  • US Flag 
12:22AM EST


 

Airport Tracker/Info


-or-


 

Live Flight TrackerFlight Track Log ✈ AAL1459 ✈ 21-Apr-2013 ✈ KORD - KRNO

Flight Track Log - Related Links

Times and Time Zones

All times are in EDT time to prevent confusion due to time zone crossing. See the AAL1459 flight status page for this flight to view local times or setup timezone preferences in your user account.

Time Position Orientation Groundspeed Altitude Reporting Facility
EDT Latitude Longitude Course Direction KTS MPH feet Rate Location/Type
06:31PM 41.9500 -87.9000 270° West 183 211 2,500  Level Chicago TRACON
06:33PM 41.9667 -88.1862 270° West  Level FlightAware Approximate
06:34PM 41.9667 -88.3294 270° West  Level FlightAware Approximate
06:34PM 41.9325 -88.0506 261° West 245 282 7,300  Level Chicago Center
06:35PM 41.9667 -88.4725 270° West  Level FlightAware Approximate
06:35PM 41.9564 -88.1411 290° West 256 295 9,600  Level Chicago Center
06:36PM 41.9668 -88.6156 270° West  Level FlightAware Approximate
06:36PM 41.9903 -88.2658 290° West 295 339 11,300  Level Chicago Center
06:37PM 41.9667 -88.7610 270° West  Level FlightAware Approximate
06:37PM 42.0247 -88.3878 291° West 344 396 13,500  Level Chicago Center
06:38PM 42.0511 -88.5161 286° West 361 415 16,000 2,340 Climbing Chicago Center
06:39PM 42.0650 -88.6508 278° West 366 421 18,400 2,760 Climbing Chicago Center
06:40PM 42.0994 -88.8069 287° West 367 422 21,800 2,700 Climbing Chicago Center
06:41PM 42.1236 -88.9275 285° West 366 421 24,000 1,980 Climbing Chicago Center
06:42PM 42.1431 -89.0600 281° West 364 419 26,000 1,560 Climbing Chicago Center
06:43PM 42.1497 -89.2247 273° West 378 435 27,300 960 Climbing Chicago Center
06:44PM 42.1575 -89.3769 274° West 406 467 28,100 960 Climbing Chicago Center
06:45PM 42.1675 -89.5353 275° West 424 488 29,300 1,440 Climbing Chicago Center
06:46PM 42.1769 -89.6953 275° West 429 494 31,100 1,680 Climbing Chicago Center
06:47PM 42.1856 -89.8486 274° West 413 475 32,800 1,500 Climbing Chicago Center
06:48PM 42.1700 -90.0200 263° West 409 471 34,200 1,080 Climbing Chicago Center
06:49PM 42.1478 -90.1694 259° West 410 472 35,100 780 Climbing Chicago Center
06:50PM 42.1467 -90.3225 269° West 418 481 35,900 420 Climbing Chicago Center
06:51PM 42.1686 -90.4722 281° West 413 475 36,000  Climbing Chicago Center
06:52PM 42.1894 -90.6250 280° West 415 478 36,000  Level Chicago Center
06:53PM 42.2081 -90.7769 279° West 414 476 36,000  Level Chicago Center
06:54PM 42.2319 -90.9583 280° West 412 474 36,000  Level Chicago Center
06:55PM 42.2522 -91.1067 281° West 406 467 36,000  Level Chicago Center
06:56PM 42.2694 -91.2592 279° West 408 470 36,000  Level Chicago Center
06:57PM 42.2883 -91.4086 280° West 406 467 36,000  Level Chicago Center
06:58PM 42.3064 -91.5586 279° West 406 467 36,000  Level Chicago Center
06:59PM 42.3258 -91.7092 280° West 406 467 36,000  Level Chicago Center
07:00PM 42.3475 -91.8914 279° West 409 471 36,000  Level Chicago Center
07:01PM 42.3656 -92.0433 279° West 411 473 36,000  Level Chicago Center
07:02PM 42.3764 -92.1344 279° West 408 470 36,000  Level Minneapolis Center
07:03PM 42.3947 -92.2833 280° West 404 465 36,000  Level Minneapolis Center
07:04PM 42.4133 -92.4614 278° West 402 463 36,000  Level Minneapolis Center
07:05PM 42.4169 -92.6111 272° West 400 460 36,000  Level Minneapolis Center
07:06PM 42.4208 -92.7614 272° West 402 463 36,000  Level Minneapolis Center
07:07PM 42.4258 -92.9097 273° West 397 457 36,000  Level Minneapolis Center
07:08PM 42.4306 -93.0611 272° West 404 465 36,000  Level Minneapolis Center
07:09PM 42.4347 -93.2419 272° West 402 463 36,000  Level Minneapolis Center
07:10PM 42.4397 -93.3931 273° West 403 464 36,000  Level Minneapolis Center
07:11PM 42.4422 -93.5431 271° West 403 464 36,000  Level Minneapolis Center
07:12PM 42.4464 -93.6911 272° West 398 458 36,000  Level Minneapolis Center
07:14PM 42.4489 -93.8406 271° West 400 460 36,000  Level Minneapolis Center
07:15PM 42.4522 -93.9894 272° West 400 460 36,000  Level Minneapolis Center
07:16PM 42.4544 -94.1644 271° West 393 452 36,000  Level Minneapolis Center
07:17PM 42.4578 -94.3089 272° West 386 444 36,000  Level Minneapolis Center
07:18PM 42.4603 -94.4547 271° West 386 444 36,000  Level Minneapolis Center
07:19PM 42.4633 -94.6008 272° West 389 448 36,000  Level Minneapolis Center
07:20PM 42.4639 -94.7458 270° West 389 448 36,000  Level Minneapolis Center
07:21PM 42.4661 -94.8911 271° West 388 447 36,000  Level Minneapolis Center
07:22PM 42.4675 -95.0650 271° West 384 442 36,000  Level Minneapolis Center
07:23PM 42.4689 -95.2114 271° West 388 447 36,000  Level Minneapolis Center
07:24PM 42.4703 -95.3597 271° West 393 452 36,000  Level Minneapolis Center
07:25PM 42.4711 -95.5069 270° West 393 452 36,000  Level Minneapolis Center
07:26PM 42.4714 -95.6556 270° West 394 453 36,000  Level Minneapolis Center
07:27PM 42.4722 -95.8039 270° West 395 455 36,000  Level Minneapolis Center
07:28PM 42.4733 -95.9833 271° West 398 458 36,000  Level Minneapolis Center
07:29PM 42.4731 -96.1319 270° West 397 457 36,000  Level Minneapolis Center
07:30PM 42.4728 -96.2811 270° West 398 458 36,000  Level Minneapolis Center
07:31PM 42.4728 -96.3992 270° West 394 453 36,000  Level Minneapolis Center
07:32PM 42.4722 -96.5744 270° West 390 449 36,000  Level Minneapolis Center
07:33PM 42.4717 -96.7219 270° West 393 452 36,000  Level Minneapolis Center
07:34PM 42.4708 -96.9000 270° West 393 452 36,000  Level Minneapolis Center
07:35PM 42.4697 -97.0500 269° West 396 456 36,000  Level Minneapolis Center
07:36PM 42.4678 -97.2003 269° West 399 459 36,000  Level Minneapolis Center
07:37PM 42.4672 -97.3478 270° West 395 455 36,000  Level Minneapolis Center
07:38PM 42.4653 -97.4972 269° West 398 458 36,000  Level Minneapolis Center
07:39PM 42.4639 -97.6472 269° West 398 458 36,000  Level Minneapolis Center
07:40PM 42.4614 -97.7983 269° West 399 459 36,000  Level Minneapolis Center
07:41PM 42.4589 -97.9775 269° West 404 465 36,000  Level Minneapolis Center
07:42PM 42.4564 -98.1278 269° West 400 460 36,000  Level Minneapolis Center
07:43PM 42.4539 -98.2764 269° West 398 458 36,000  Level Minneapolis Center
07:44PM 42.4508 -98.4239 268° West 394 453 36,100 240 Climbing Minneapolis Center
07:45PM 42.4486 -98.5714 269° West 393 452 36,600 420 Climbing Minneapolis Center
07:46PM 42.4753 -98.7122 284° West 396 456 37,000 120 Climbing Minneapolis Center
07:48PM 42.5492 -98.8656 303° West 404 465 37,000  Level Minneapolis Center
07:49PM 42.6203 -99.0175 302° West 401 461 37,000  Level Minneapolis Center
07:50PM 42.6817 -99.1439 303° West 401 461 37,000 180 Level Minneapolis Center
07:51PM 42.7431 -99.2728 303° West 405 466 37,400 480 Climbing Minneapolis Center
07:52PM 42.7978 -99.4033 300° West 400 460 38,000 240 Climbing Minneapolis Center
07:53PM 42.7953 -99.5539 269° West 396 456 38,000  Level Minneapolis Center
07:54PM 42.7842 -99.7189 265° West 395 455 38,000  Level Denver Center
07:55PM 42.7750 -99.8692 265° West 396 456 38,000  Level Denver Center
07:56PM 42.7636 -100.0464 265° West 393 452 38,000  Level Denver Center
07:57PM 42.7556 -100.1933 266° West 389 448 38,000  Level Denver Center
07:58PM 42.7458 -100.3400 265° West 391 450 38,000  Level Denver Center
07:59PM 42.7361 -100.4853 265° West 387 445 38,000  Level Denver Center
08:00PM 42.7272 -100.6383 266° West 389 448 38,000  Level Denver Center
08:01PM 42.7181 -100.8000 266° West 386 444 38,000  Level Denver Center
08:02PM 42.7092 -100.9389 265° West 386 444 38,000  Level Denver Center
08:03PM 42.6994 -101.1017 265° West 387 445 38,000  Level Denver Center
08:04PM 42.6903 -101.2419 265° West 390 449 38,000  Level Denver Center
08:05PM 42.6819 -101.3814 265° West 389 448 38,000  Level Denver Center
08:06PM 42.6708 -101.5447 265° West 390 449 38,000  Level Denver Center
08:07PM 42.6614 -101.6856 265° West 390 449 38,000  Level Denver Center
08:08PM 42.6500 -101.8389 264° West 393 452 38,000  Level Denver Center
08:09PM 42.6394 -102.0042 265° West 394 453 38,000  Level Denver Center
08:11PM 42.6289 -102.1472 264° West 397 457 38,000  Level Denver Center
08:12PM 42.6167 -102.3108 264° West 392 451 38,000  Level Denver Center
08:13PM 42.6061 -102.4514 264° West 391 450 38,000  Level Denver Center
08:14PM 42.5939 -102.6131 264° West 387 445 38,000  Level Denver Center
08:15PM 42.5839 -102.7542 265° West 390 449 38,000  Level Denver Center
08:16PM 42.5700 -102.9183 264° West 393 452 38,000  Level Denver Center
08:17PM 42.5597 -103.0594 264° West 394 453 38,000  Level Denver Center
08:18PM 42.5478 -103.2019 264° West 397 457 38,000  Level Denver Center
08:19PM 42.5339 -103.3656 263° West 393 452 38,000  Level Denver Center
08:20PM 42.5228 -103.5056 264° West 390 449 38,000  Level Denver Center
08:21PM 42.5086 -103.6703 263° West 392 451 38,000  Level Denver Center
08:22PM 42.4975 -103.8064 264° West 382 440 38,000  Level Denver Center
08:23PM 42.4831 -103.9667 263° West 383 441 38,000  Level Denver Center
08:24PM 42.4708 -104.1022 263° West 379 436 38,000  Level Denver Center
08:25PM 42.4569 -104.2631 263° West 383 441 38,000  Level Denver Center
08:26PM 42.4439 -104.4006 263° West 383 441 38,000  Level Denver Center
08:27PM 42.4311 -104.5386 263° West 382 440 38,000  Level Denver Center
08:28PM 42.4158 -104.7019 263° West 386 444 38,000  Level Denver Center
08:29PM 42.4031 -104.8397 263° West 384 442 38,000  Level Denver Center
08:30PM 42.3875 -104.9994 263° West 383 441 38,000  Level Denver Center
08:31PM 42.3739 -105.1381 262° West 387 445 38,000  Level Denver Center
08:32PM 42.3603 -105.2772 263° West 390 449 38,000  Level Denver Center
08:33PM 42.3439 -105.4386 262° West 387 445 38,000  Level Denver Center
08:34PM 42.3303 -105.5753 262° West 385 443 38,000  Level Denver Center
08:35PM 42.3142 -105.7322 262° West 377 434 38,000  Level Denver Center
08:36PM 42.3003 -105.8675 262° West 380 437 38,000  Level Denver Center
08:37PM 42.2836 -106.0225 262° West 373 429 38,100  Climbing Denver Center
08:38PM 42.2683 -106.1569 261° West 378 435 38,000 -60 Descending Denver Center
08:39PM 42.2528 -106.3119 262° West 374 430 38,000  Level Denver Center
08:40PM 42.2378 -106.4458 261° West 376 433 38,000  Level Denver Center
08:42PM 42.2214 -106.5917 261° West 374 430 38,000  Level Denver Center
08:43PM 42.2056 -106.7247 261° West 375 432 38,000  Level Denver Center
08:44PM 42.1886 -106.8772 262° West 371 427 38,000  Level Denver Center
08:45PM 42.1739 -107.0064 261° West 366 421 38,000  Level Denver Center
08:46PM 42.1558 -107.1569 261° West 364 419 38,000  Level Denver Center
08:47PM 42.1419 -107.2856 262° West 363 418 38,000  Level Denver Center
08:48PM 42.1236 -107.4350 261° West 363 418 38,000  Level Denver Center
08:49PM 42.1075 -107.5636 260° West 365 420 38,000  Level Denver Center
08:50PM 42.0917 -107.6950 261° West 369 425 38,000  Level Salt Lake Center
08:51PM 42.0756 -107.8247 261° West 368 423 38,000  Level Salt Lake Center
08:52PM 42.0567 -107.9783 261° West 374 430 38,000  Level Salt Lake Center
08:53PM 42.0425 -108.1114 262° West 376 433 38,000  Level Salt Lake Center
08:54PM 42.0247 -108.2647 261° West 371 427 38,000  Level Salt Lake Center
08:55PM 42.0064 -108.3928 259° West 367 422 38,000  Level Salt Lake Center
08:56PM 41.9872 -108.5422 260° West 367 422 38,000  Level Salt Lake Center
08:57PM 41.9697 -108.6736 260° West 372 428 38,000  Level Salt Lake Center
08:58PM 41.9489 -108.8269 260° West 375 432 38,000  Level Salt Lake Center
08:59PM 41.9322 -108.9572 260° West 373 429 38,000  Level Salt Lake Center
09:00PM 41.9144 -109.0881 260° West 373 429 38,000  Level Salt Lake Center
09:01PM 41.8933 -109.2397 259° West 373 429 38,000  Level Salt Lake Center
09:02PM 41.8764 -109.3686 260° West 371 427 38,000  Level Salt Lake Center
09:03PM 41.8550 -109.5200 259° West 372 428 38,000  Level Salt Lake Center
09:04PM 41.8367 -109.6506 259° West 374 430 38,000  Level Salt Lake Center
09:05PM 41.8161 -109.8008 260° West 370 426 38,000  Level Salt Lake Center
09:06PM 41.7975 -109.9300 259° West 369 425 38,000  Level Salt Lake Center
09:07PM 41.7794 -110.0578 259° West 367 422 38,000  Level Salt Lake Center
09:08PM 41.7572 -110.2061 259° West 366 421 38,000  Level Salt Lake Center
09:09PM 41.7392 -110.3328 259° West 365 420 38,100  Climbing Salt Lake Center
09:10PM 41.7178 -110.4811 259° West 363 418 38,000 -60 Descending Salt Lake Center
09:11PM 41.6978 -110.6108 258° West 372 428 38,000  Level Salt Lake Center
09:12PM 41.6764 -110.7614 259° West 370 426 38,000  Level Salt Lake Center
09:13PM 41.6556 -110.8900 258° West 370 426 38,000  Level Salt Lake Center
09:14PM 41.6378 -111.0078 259° West 364 419 38,100  Climbing Salt Lake Center
09:15PM 41.6133 -111.1653 258° West 363 418 38,000 -60 Descending Salt Lake Center
09:16PM 41.5933 -111.2933 258° West 356 410 38,000  Level Salt Lake Center
09:17PM 41.5739 -111.4214 259° West 356 410 38,000  Level Salt Lake Center
09:18PM 41.5531 -111.5514 258° West 360 414 38,000  Level Salt Lake Center
09:19PM 41.5325 -111.6803 258° West 360 414 38,000  Level Salt Lake Center
09:20PM 41.5122 -111.8067 258° West 353 406 38,000  Level Salt Lake Center
09:21PM 41.4931 -111.9322 259° West 350 403 38,000  Level Salt Lake Center
09:22PM 41.4675 -112.0867 258° West 357 411 38,000  Level Salt Lake Center
09:23PM 41.4464 -112.2133 258° West 354 407 38,000  Level Salt Lake Center
09:24PM 41.4258 -112.3428 258° West 359 413 38,000  Level Salt Lake Center
09:25PM 41.4044 -112.4711 258° West 357 411 38,000  Level Salt Lake Center
09:26PM 41.3833 -112.5986 258° West 356 410 38,000  Level Salt Lake Center
09:28PM 41.3628 -112.7264 258° West 355 409 38,000  Level Salt Lake Center
09:29PM 41.3403 -112.8542 257° West 357 411 38,000  Level Salt Lake Center
09:30PM 41.3183 -112.9819 257° West 357 411 38,000  Level Salt Lake Center
09:31PM 41.2922 -113.1358 257° West 358 412 38,000  Level Salt Lake Center
09:32PM 41.2683 -113.2644 256° West 360 414 38,000  Level Salt Lake Center
09:33PM 41.2456 -113.3933 257° West 360 414 38,000  Level Salt Lake Center
09:34PM 41.2236 -113.5222 257° West 360 414 38,000  Level Salt Lake Center
09:35PM 41.2014 -113.6508 257° West 359 413 38,000  Level Salt Lake Center
09:36PM 41.1761 -113.7797 255° West 361 415 38,000  Level Salt Lake Center
09:37PM 41.1558 -113.9086 258° West 360 414 38,000  Level Salt Lake Center
09:38PM 41.1314 -114.0369 256° West 359 413 38,000  Level Salt Lake Center
09:39PM 41.1019 -114.1881 256° West 355 409 38,000  Level Salt Lake Center
09:40PM 41.0800 -114.3175 257° West 360 414 38,000  Level Salt Lake Center
09:41PM 41.0511 -114.4508 254° West 372 428 38,000  Level Salt Lake Center
09:42PM 41.0119 -114.5814 248° West 382 440 38,000  Level Salt Lake Center
09:43PM 40.9686 -114.7044 245° Southwest 385 443 38,000  Level Salt Lake Center
09:44PM 40.9258 -114.8475 248° West 377 434 38,000  Level Salt Lake Center
09:45PM 40.8858 -114.9706 247° West 380 437 38,000  Level Salt Lake Center
09:46PM 40.8383 -115.1192 247° West 392 451 38,000  Level Salt Lake Center
09:48PM 40.7600 -115.3664 247° West 378 435 38,000  Level Salt Lake Center
09:49PM 40.7136 -115.5056 246° West 371 427 38,000  Level Salt Lake Center
09:50PM 40.6758 -115.6253 247° West 370 426 38,000  Level Salt Lake Center
09:51PM 40.6300 -115.7653 247° West 372 428 38,000  Level Salt Lake Center
09:52PM 40.5886 -115.8875 246° West 380 437 38,000  Level Salt Lake Center
09:53PM 40.5478 -116.0128 247° West 388 447 38,000  Level Salt Lake Center
09:54PM 40.4994 -116.1589 247° West 391 450 38,000  Level Salt Lake Center
09:55PM 40.4592 -116.2847 247° West 390 449 38,000  Level Salt Lake Center
09:56PM 40.4172 -116.4081 246° West 387 445 38,000  Level Salt Lake Center
09:57PM 40.3697 -116.5508 246° West 383 441 38,000  Level Salt Lake Center
09:58PM 40.3286 -116.6708 246° West 376 433 38,000  Level Salt Lake Center
09:59PM 40.2861 -116.7950 246° West 381 438 38,000  Level Salt Lake Center
10:00PM 40.2367 -116.9431 246° West 390 449 38,100  Climbing Salt Lake Center
10:01PM 40.1931 -117.0700 246° West 395 455 38,000 -60 Descending Salt Lake Center
10:02PM 40.1522 -117.1897 246° West 379 436 38,000  Level Salt Lake Center
10:03PM 40.1031 -117.3325 246° West 383 441 38,000  Level Salt Lake Center
10:04PM 40.0592 -117.4586 246° West 394 453 38,000  Level Salt Lake Center
10:05PM 40.0081 -117.6025 245° Southwest 391 450 38,000 -120 Level Salt Lake Center
10:06PM 39.9644 -117.7297 246° West 400 460 37,800 -600 Descending Salt Lake Center
10:08PM 39.9072 -117.8931 245° Southwest 403 464 36,800 -1,500 Descending Oakland Center
10:09PM 39.8606 -118.0244 245° Southwest 400 460 34,700 -2,580 Descending Oakland Center
10:10PM 39.8133 -118.1583 245° Southwest 407 468 31,600 -2,700 Descending Oakland Center
10:11PM 39.7664 -118.2914 245° Southwest 406 467 29,200 -2,340 Descending Oakland Center
10:12PM 39.7206 -118.4186 245° Southwest 391 450 26,900 -2,220 Descending Oakland Center
10:13PM 39.6769 -118.5394 245° Southwest 373 429 24,800 -2,100 Descending Oakland Center
10:14PM 39.6339 -118.6569 245° Southwest 364 419 22,700 -2,160 Descending Oakland Center
10:15PM 39.5911 -118.7767 245° Southwest 369 425 20,500 -2,340 Descending Oakland Center
10:16PM 39.5397 -118.9189 245° Southwest 368 423 18,000 -2,220 Descending Oakland Center
10:17PM 39.4975 -119.0317 244° Southwest 355 409 16,000 -1,920 Descending Oakland Center
10:18PM 39.4567 -119.1422 244° Southwest 346 398 14,200 -1,500 Descending Oakland Center
10:19PM 39.4181 -119.2489 245° Southwest 333 383 13,000 -600 Descending Oakland Center
10:20PM 39.3792 -119.3525 244° Southwest 324 373 13,000 -420 Level Oakland Center
10:21PM 39.3472 -119.4572 249° West 316 364 12,200 -1,020 Descending Oakland Center
10:22PM 39.3289 -119.5661 258° West 313 360 11,000 -1,320 Descending Oakland Center
10:23PM 39.3103 -119.6669 257° West 302 348 9,500 -1,500 Descending Oakland Center